sensor_id;sensor_type;location;lat;lon;timestamp;P1;durP1;ratioP1;P2;durP2;ratioP2
4732;SDS011;2380;53.668;10.008;2022-10-31T00:02:00;48.43;;;28.70;;
4732;SDS011;2380;53.668;10.008;2022-10-31T00:04:30;48.40;;;29.53;;
4732;SDS011;2380;53.668;10.008;2022-10-31T00:06:59;51.00;;;29.10;;
4732;SDS011;2380;53.668;10.008;2022-10-31T00:09:29;51.20;;;28.73;;
4732;SDS011;2380;53.668;10.008;2022-10-31T00:11:58;54.50;;;30.27;;
4732;SDS011;2380;53.668;10.008;2022-10-31T00:14:28;51.07;;;28.83;;
4732;SDS011;2380;53.668;10.008;2022-10-31T00:17:00;44.27;;;26.90;;
4732;SDS011;2380;53.668;10.008;2022-10-31T00:19:29;47.70;;;28.60;;
4732;SDS011;2380;53.668;10.008;2022-10-31T00:21:59;47.30;;;27.00;;
4732;SDS011;2380;53.668;10.008;2022-10-31T00:24:28;48.60;;;28.67;;
4732;SDS011;2380;53.668;10.008;2022-10-31T00:26:58;47.10;;;28.10;;
4732;SDS011;2380;53.668;10.008;2022-10-31T00:29:27;42.57;;;25.97;;
4732;SDS011;2380;53.668;10.008;2022-10-31T00:31:59;44.97;;;26.43;;
4732;SDS011;2380;53.668;10.008;2022-10-31T00:34:29;42.33;;;25.83;;
4732;SDS011;2380;53.668;10.008;2022-10-31T00:36:58;47.73;;;27.07;;
4732;SDS011;2380;53.668;10.008;2022-10-31T00:39:28;45.50;;;27.57;;
4732;SDS011;2380;53.668;10.008;2022-10-31T00:41:57;51.73;;;27.87;;
4732;SDS011;2380;53.668;10.008;2022-10-31T00:44:27;45.37;;;27.70;;
4732;SDS011;2380;53.668;10.008;2022-10-31T00:46:56;46.00;;;26.50;;
4732;SDS011;2380;53.668;10.008;2022-10-31T00:49:28;49.87;;;28.80;;
4732;SDS011;2380;53.668;10.008;2022-10-31T00:51:58;47.13;;;27.57;;
4732;SDS011;2380;53.668;10.008;2022-10-31T00:54:27;46.47;;;28.47;;
4732;SDS011;2380;53.668;10.008;2022-10-31T00:56:57;52.63;;;29.43;;
4732;SDS011;2380;53.668;10.008;2022-10-31T00:59:27;50.90;;;26.23;;
4732;SDS011;2380;53.668;10.008;2022-10-31T01:01:56;47.07;;;26.30;;
4732;SDS011;2380;53.668;10.008;2022-10-31T01:04:29;45.60;;;28.20;;
4732;SDS011;2380;53.668;10.008;2022-10-31T01:06:58;46.73;;;26.83;;
4732;SDS011;2380;53.668;10.008;2022-10-31T01:09:28;55.63;;;28.50;;
4732;SDS011;2380;53.668;10.008;2022-10-31T01:11:59;48.17;;;26.30;;
4732;SDS011;2380;53.668;10.008;2022-10-31T01:14:30;51.00;;;28.50;;
4732;SDS011;2380;53.668;10.008;2022-10-31T01:17:00;46.37;;;27.57;;
4732;SDS011;2380;53.668;10.008;2022-10-31T01:19:32;47.47;;;26.30;;
4732;SDS011;2380;53.668;10.008;2022-10-31T01:22:01;56.67;;;28.90;;
4732;SDS011;2380;53.668;10.008;2022-10-31T01:24:31;51.93;;;29.73;;
4732;SDS011;2380;53.668;10.008;2022-10-31T01:27:01;56.33;;;30.30;;
4732;SDS011;2380;53.668;10.008;2022-10-31T01:29:30;61.33;;;29.37;;
4732;SDS011;2380;53.668;10.008;2022-10-31T01:32:00;50.93;;;30.43;;
4732;SDS011;2380;53.668;10.008;2022-10-31T01:34:32;51.10;;;30.50;;
4732;SDS011;2380;53.668;10.008;2022-10-31T01:37:02;52.00;;;31.00;;
4732;SDS011;2380;53.668;10.008;2022-10-31T01:39:31;58.87;;;30.03;;
4732;SDS011;2380;53.668;10.008;2022-10-31T01:42:01;51.93;;;31.87;;
4732;SDS011;2380;53.668;10.008;2022-10-31T01:47:21;60.70;;;31.03;;
4732;SDS011;2380;53.668;10.008;2022-10-31T01:49:59;53.50;;;31.00;;
4732;SDS011;2380;53.668;10.008;2022-10-31T01:52:30;59.80;;;32.90;;
4732;SDS011;2380;53.668;10.008;2022-10-31T01:55:03;56.90;;;31.70;;
4732;SDS011;2380;53.668;10.008;2022-10-31T01:57:34;64.43;;;32.63;;
4732;SDS011;2380;53.668;10.008;2022-10-31T02:00:06;65.17;;;32.60;;
4732;SDS011;2380;53.668;10.008;2022-10-31T02:02:37;60.43;;;33.60;;
4732;SDS011;2380;53.668;10.008;2022-10-31T02:05:10;56.70;;;31.90;;
4732;SDS011;2380;53.668;10.008;2022-10-31T02:07:42;57.90;;;32.17;;
4732;SDS011;2380;53.668;10.008;2022-10-31T02:10:13;69.83;;;33.70;;
4732;SDS011;2380;53.668;10.008;2022-10-31T02:12:42;61.33;;;33.40;;
4732;SDS011;2380;53.668;10.008;2022-10-31T02:15:13;62.60;;;33.67;;
4732;SDS011;2380;53.668;10.008;2022-10-31T02:17:43;65.30;;;33.57;;
4732;SDS011;2380;53.668;10.008;2022-10-31T02:20:17;64.83;;;34.37;;
4732;SDS011;2380;53.668;10.008;2022-10-31T02:26:01;62.27;;;33.40;;
4732;SDS011;2380;53.668;10.008;2022-10-31T02:28:41;58.80;;;34.33;;
4732;SDS011;2380;53.668;10.008;2022-10-31T02:31:25;63.70;;;34.03;;
4732;SDS011;2380;53.668;10.008;2022-10-31T02:34:04;66.43;;;34.90;;
4732;SDS011;2380;53.668;10.008;2022-10-31T02:36:41;67.00;;;35.50;;
4732;SDS011;2380;53.668;10.008;2022-10-31T02:39:16;80.27;;;37.60;;
4732;SDS011;2380;53.668;10.008;2022-10-31T02:41:50;76.33;;;35.80;;
4732;SDS011;2380;53.668;10.008;2022-10-31T02:44:26;69.27;;;36.20;;
4732;SDS011;2380;53.668;10.008;2022-10-31T02:47:01;73.67;;;37.80;;
4732;SDS011;2380;53.668;10.008;2022-10-31T02:49:33;66.57;;;35.47;;
4732;SDS011;2380;53.668;10.008;2022-10-31T02:52:13;68.40;;;35.47;;
4732;SDS011;2380;53.668;10.008;2022-10-31T02:54:43;77.27;;;37.10;;
4732;SDS011;2380;53.668;10.008;2022-10-31T02:57:13;75.13;;;37.47;;
4732;SDS011;2380;53.668;10.008;2022-10-31T02:59:47;70.70;;;35.57;;
4732;SDS011;2380;53.668;10.008;2022-10-31T03:02:26;65.40;;;36.20;;
4732;SDS011;2380;53.668;10.008;2022-10-31T03:05:11;82.57;;;36.70;;
4732;SDS011;2380;53.668;10.008;2022-10-31T03:07:51;71.23;;;34.57;;
4732;SDS011;2380;53.668;10.008;2022-10-31T03:10:27;77.80;;;37.13;;
4732;SDS011;2380;53.668;10.008;2022-10-31T03:13:03;68.70;;;35.10;;
4732;SDS011;2380;53.668;10.008;2022-10-31T03:15:39;72.77;;;37.47;;
4732;SDS011;2380;53.668;10.008;2022-10-31T03:18:14;74.17;;;36.47;;
4732;SDS011;2380;53.668;10.008;2022-10-31T03:20:45;86.60;;;36.57;;
4732;SDS011;2380;53.668;10.008;2022-10-31T03:23:18;73.60;;;36.00;;
4732;SDS011;2380;53.668;10.008;2022-10-31T03:25:49;75.80;;;36.40;;
4732;SDS011;2380;53.668;10.008;2022-10-31T03:28:21;68.50;;;36.07;;
4732;SDS011;2380;53.668;10.008;2022-10-31T03:30:53;69.53;;;37.23;;
4732;SDS011;2380;53.668;10.008;2022-10-31T03:33:26;68.07;;;35.80;;
4732;SDS011;2380;53.668;10.008;2022-10-31T03:35:57;66.63;;;36.00;;
4732;SDS011;2380;53.668;10.008;2022-10-31T03:38:28;70.17;;;37.00;;
4732;SDS011;2380;53.668;10.008;2022-10-31T03:40:58;62.20;;;32.87;;
4732;SDS011;2380;53.668;10.008;2022-10-31T03:43:30;81.17;;;36.57;;
4732;SDS011;2380;53.668;10.008;2022-10-31T03:46:02;80.17;;;34.87;;
4732;SDS011;2380;53.668;10.008;2022-10-31T03:48:34;67.93;;;35.37;;
4732;SDS011;2380;53.668;10.008;2022-10-31T03:51:05;81.57;;;34.77;;
4732;SDS011;2380;53.668;10.008;2022-10-31T03:53:37;83.33;;;37.80;;
4732;SDS011;2380;53.668;10.008;2022-10-31T03:56:09;76.27;;;35.53;;
4732;SDS011;2380;53.668;10.008;2022-10-31T03:58:42;66.30;;;34.37;;
4732;SDS011;2380;53.668;10.008;2022-10-31T04:01:15;67.50;;;35.23;;
4732;SDS011;2380;53.668;10.008;2022-10-31T04:03:48;64.10;;;33.70;;
4732;SDS011;2380;53.668;10.008;2022-10-31T04:06:18;65.33;;;34.03;;
4732;SDS011;2380;53.668;10.008;2022-10-31T04:08:51;64.43;;;33.07;;
4732;SDS011;2380;53.668;10.008;2022-10-31T04:11:23;75.23;;;36.10;;
4732;SDS011;2380;53.668;10.008;2022-10-31T04:13:56;73.33;;;35.17;;
4732;SDS011;2380;53.668;10.008;2022-10-31T04:16:26;77.33;;;36.10;;
4732;SDS011;2380;53.668;10.008;2022-10-31T04:18:58;72.63;;;35.73;;
4732;SDS011;2380;53.668;10.008;2022-10-31T04:21:28;81.40;;;37.77;;
4732;SDS011;2380;53.668;10.008;2022-10-31T04:23:58;93.67;;;39.53;;
4732;SDS011;2380;53.668;10.008;2022-10-31T04:26:27;100.17;;;40.37;;
4732;SDS011;2380;53.668;10.008;2022-10-31T04:28:57;83.53;;;37.53;;
4732;SDS011;2380;53.668;10.008;2022-10-31T04:31:27;89.17;;;37.63;;
4732;SDS011;2380;53.668;10.008;2022-10-31T04:33:59;84.70;;;38.60;;
4732;SDS011;2380;53.668;10.008;2022-10-31T04:36:28;81.93;;;37.30;;
4732;SDS011;2380;53.668;10.008;2022-10-31T04:38:57;96.27;;;40.83;;
4732;SDS011;2380;53.668;10.008;2022-10-31T04:41:27;102.60;;;41.17;;
4732;SDS011;2380;53.668;10.008;2022-10-31T04:43:56;96.73;;;40.87;;
4732;SDS011;2380;53.668;10.008;2022-10-31T04:46:26;132.73;;;40.93;;
4732;SDS011;2380;53.668;10.008;2022-10-31T04:48:58;105.47;;;40.43;;
4732;SDS011;2380;53.668;10.008;2022-10-31T04:51:28;104.73;;;40.23;;
4732;SDS011;2380;53.668;10.008;2022-10-31T04:53:57;94.10;;;42.10;;
4732;SDS011;2380;53.668;10.008;2022-10-31T04:56:27;113.40;;;39.97;;
4732;SDS011;2380;53.668;10.008;2022-10-31T04:58:56;103.43;;;40.30;;
4732;SDS011;2380;53.668;10.008;2022-10-31T05:01:26;102.33;;;38.67;;
4732;SDS011;2380;53.668;10.008;2022-10-31T05:03:58;109.47;;;39.03;;
4732;SDS011;2380;53.668;10.008;2022-10-31T05:06:28;69.97;;;35.60;;
4732;SDS011;2380;53.668;10.008;2022-10-31T05:08:57;96.17;;;40.43;;
4732;SDS011;2380;53.668;10.008;2022-10-31T05:11:27;96.07;;;38.40;;
4732;SDS011;2380;53.668;10.008;2022-10-31T05:13:56;78.43;;;35.57;;
4732;SDS011;2380;53.668;10.008;2022-10-31T05:16:26;90.93;;;37.13;;
4732;SDS011;2380;53.668;10.008;2022-10-31T05:18:55;89.67;;;35.77;;
4732;SDS011;2380;53.668;10.008;2022-10-31T05:21:27;107.60;;;36.83;;
4732;SDS011;2380;53.668;10.008;2022-10-31T05:23:57;79.40;;;36.10;;
4732;SDS011;2380;53.668;10.008;2022-10-31T05:26:26;80.63;;;36.93;;
4732;SDS011;2380;53.668;10.008;2022-10-31T05:28:56;113.40;;;35.20;;
4732;SDS011;2380;53.668;10.008;2022-10-31T05:31:25;102.37;;;35.87;;
4732;SDS011;2380;53.668;10.008;2022-10-31T05:33:55;109.60;;;35.17;;
4732;SDS011;2380;53.668;10.008;2022-10-31T05:36:27;80.80;;;37.43;;
4732;SDS011;2380;53.668;10.008;2022-10-31T05:38:57;90.63;;;35.13;;
4732;SDS011;2380;53.668;10.008;2022-10-31T05:41:26;150.87;;;39.00;;
4732;SDS011;2380;53.668;10.008;2022-10-31T05:43:56;78.83;;;35.40;;
4732;SDS011;2380;53.668;10.008;2022-10-31T05:46:25;89.27;;;35.23;;
4732;SDS011;2380;53.668;10.008;2022-10-31T05:48:55;87.83;;;34.47;;
4732;SDS011;2380;53.668;10.008;2022-10-31T05:51:30;129.33;;;36.20;;
4732;SDS011;2380;53.668;10.008;2022-10-31T05:54:00;116.60;;;37.50;;
4732;SDS011;2380;53.668;10.008;2022-10-31T05:56:29;87.83;;;34.50;;
4732;SDS011;2380;53.668;10.008;2022-10-31T05:58:59;80.47;;;34.00;;
4732;SDS011;2380;53.668;10.008;2022-10-31T06:01:28;97.50;;;34.30;;
4732;SDS011;2380;53.668;10.008;2022-10-31T06:03:58;119.23;;;38.30;;
4732;SDS011;2380;53.668;10.008;2022-10-31T06:06:30;93.73;;;35.87;;
4732;SDS011;2380;53.668;10.008;2022-10-31T06:08:59;85.83;;;35.10;;
4732;SDS011;2380;53.668;10.008;2022-10-31T06:11:29;83.60;;;33.90;;
4732;SDS011;2380;53.668;10.008;2022-10-31T06:13:58;96.23;;;33.47;;
4732;SDS011;2380;53.668;10.008;2022-10-31T06:16:28;80.60;;;31.00;;
4732;SDS011;2380;53.668;10.008;2022-10-31T06:18:57;116.03;;;32.50;;
4732;SDS011;2380;53.668;10.008;2022-10-31T06:21:26;111.07;;;32.93;;
4732;SDS011;2380;53.668;10.008;2022-10-31T06:23:59;132.87;;;33.27;;
4732;SDS011;2380;53.668;10.008;2022-10-31T06:26:28;126.20;;;30.50;;
4732;SDS011;2380;53.668;10.008;2022-10-31T06:28:57;68.03;;;30.10;;
4732;SDS011;2380;53.668;10.008;2022-10-31T06:31:29;73.93;;;31.77;;
4732;SDS011;2380;53.668;10.008;2022-10-31T06:33:59;63.60;;;28.50;;
4732;SDS011;2380;53.668;10.008;2022-10-31T06:36:31;79.53;;;28.20;;
4732;SDS011;2380;53.668;10.008;2022-10-31T06:39:00;76.47;;;29.87;;
4732;SDS011;2380;53.668;10.008;2022-10-31T06:41:30;88.43;;;29.70;;
4732;SDS011;2380;53.668;10.008;2022-10-31T06:43:59;68.43;;;29.07;;
4732;SDS011;2380;53.668;10.008;2022-10-31T06:46:34;75.97;;;30.97;;
4732;SDS011;2380;53.668;10.008;2022-10-31T06:49:03;68.50;;;27.60;;
4732;SDS011;2380;53.668;10.008;2022-10-31T06:51:35;73.43;;;28.33;;
4732;SDS011;2380;53.668;10.008;2022-10-31T06:54:05;80.33;;;34.93;;
4732;SDS011;2380;53.668;10.008;2022-10-31T06:56:34;85.17;;;28.30;;
4732;SDS011;2380;53.668;10.008;2022-10-31T06:59:04;81.13;;;29.90;;
4732;SDS011;2380;53.668;10.008;2022-10-31T07:01:33;72.27;;;29.07;;
4732;SDS011;2380;53.668;10.008;2022-10-31T07:04:03;67.17;;;29.27;;
4732;SDS011;2380;53.668;10.008;2022-10-31T07:06:33;66.53;;;30.00;;
4732;SDS011;2380;53.668;10.008;2022-10-31T07:09:05;112.93;;;31.93;;
4732;SDS011;2380;53.668;10.008;2022-10-31T07:11:34;97.80;;;31.10;;
4732;SDS011;2380;53.668;10.008;2022-10-31T07:14:04;87.93;;;29.80;;
4732;SDS011;2380;53.668;10.008;2022-10-31T07:16:33;97.47;;;31.67;;
4732;SDS011;2380;53.668;10.008;2022-10-31T07:19:03;100.13;;;27.07;;
4732;SDS011;2380;53.668;10.008;2022-10-31T07:21:32;95.13;;;29.47;;
4732;SDS011;2380;53.668;10.008;2022-10-31T07:24:04;83.20;;;28.97;;
4732;SDS011;2380;53.668;10.008;2022-10-31T07:26:34;141.23;;;29.30;;
4732;SDS011;2380;53.668;10.008;2022-10-31T07:29:04;93.80;;;26.70;;
4732;SDS011;2380;53.668;10.008;2022-10-31T07:31:33;140.60;;;27.60;;
4732;SDS011;2380;53.668;10.008;2022-10-31T07:34:03;100.20;;;27.30;;
4732;SDS011;2380;53.668;10.008;2022-10-31T07:36:32;98.90;;;26.50;;
4732;SDS011;2380;53.668;10.008;2022-10-31T07:39:04;113.77;;;25.93;;
4732;SDS011;2380;53.668;10.008;2022-10-31T07:41:33;79.03;;;29.00;;
4732;SDS011;2380;53.668;10.008;2022-10-31T07:44:03;58.57;;;27.63;;
4732;SDS011;2380;53.668;10.008;2022-10-31T07:46:33;109.73;;;25.63;;
4732;SDS011;2380;53.668;10.008;2022-10-31T07:49:02;81.73;;;26.47;;
4732;SDS011;2380;53.668;10.008;2022-10-31T07:51:33;70.67;;;24.57;;
4732;SDS011;2380;53.668;10.008;2022-10-31T07:54:05;123.80;;;25.60;;
4732;SDS011;2380;53.668;10.008;2022-10-31T07:56:34;91.60;;;24.07;;
4732;SDS011;2380;53.668;10.008;2022-10-31T07:59:04;94.07;;;25.23;;
4732;SDS011;2380;53.668;10.008;2022-10-31T08:01:33;87.57;;;24.17;;
4732;SDS011;2380;53.668;10.008;2022-10-31T08:04:03;83.10;;;24.07;;
4732;SDS011;2380;53.668;10.008;2022-10-31T08:06:32;57.30;;;21.43;;
4732;SDS011;2380;53.668;10.008;2022-10-31T08:09:05;78.27;;;22.50;;
4732;SDS011;2380;53.668;10.008;2022-10-31T08:11:34;47.93;;;22.03;;
4732;SDS011;2380;53.668;10.008;2022-10-31T08:14:04;82.93;;;20.80;;
4732;SDS011;2380;53.668;10.008;2022-10-31T08:16:33;65.77;;;22.40;;
4732;SDS011;2380;53.668;10.008;2022-10-31T08:19:03;56.53;;;22.73;;
4732;SDS011;2380;53.668;10.008;2022-10-31T08:21:32;71.80;;;31.10;;
4732;SDS011;2380;53.668;10.008;2022-10-31T08:24:05;181.47;;;85.63;;
4732;SDS011;2380;53.668;10.008;2022-10-31T08:26:35;180.37;;;87.17;;
4732;SDS011;2380;53.668;10.008;2022-10-31T08:29:04;79.17;;;24.33;;
4732;SDS011;2380;53.668;10.008;2022-10-31T08:31:34;64.90;;;20.40;;
4732;SDS011;2380;53.668;10.008;2022-10-31T08:34:08;56.30;;;28.30;;
4732;SDS011;2380;53.668;10.008;2022-10-31T08:36:37;42.80;;;20.57;;
4732;SDS011;2380;53.668;10.008;2022-10-31T08:39:11;105.03;;;18.83;;
4732;SDS011;2380;53.668;10.008;2022-10-31T08:41:40;52.87;;;18.23;;
4732;SDS011;2380;53.668;10.008;2022-10-31T08:44:10;49.23;;;24.20;;
4732;SDS011;2380;53.668;10.008;2022-10-31T08:46:39;54.87;;;25.00;;
4732;SDS011;2380;53.668;10.008;2022-10-31T08:49:09;62.33;;;18.77;;
4732;SDS011;2380;53.668;10.008;2022-10-31T08:51:38;77.83;;;17.87;;
4732;SDS011;2380;53.668;10.008;2022-10-31T08:54:08;44.83;;;21.30;;
4732;SDS011;2380;53.668;10.008;2022-10-31T08:56:40;49.27;;;22.50;;
4732;SDS011;2380;53.668;10.008;2022-10-31T08:59:09;37.00;;;17.37;;
4732;SDS011;2380;53.668;10.008;2022-10-31T09:01:39;30.60;;;16.20;;
4732;SDS011;2380;53.668;10.008;2022-10-31T09:04:08;38.73;;;16.03;;
4732;SDS011;2380;53.668;10.008;2022-10-31T09:06:38;28.93;;;14.33;;
4732;SDS011;2380;53.668;10.008;2022-10-31T09:09:29;36.20;;;14.80;;
4732;SDS011;2380;53.668;10.008;2022-10-31T09:11:58;33.63;;;14.60;;
4732;SDS011;2380;53.668;10.008;2022-10-31T09:14:28;28.80;;;13.97;;
4732;SDS011;2380;53.668;10.008;2022-10-31T09:16:57;33.03;;;15.90;;
4732;SDS011;2380;53.668;10.008;2022-10-31T09:19:27;44.00;;;16.83;;
4732;SDS011;2380;53.668;10.008;2022-10-31T09:21:57;46.07;;;15.53;;
4732;SDS011;2380;53.668;10.008;2022-10-31T09:24:29;29.13;;;15.20;;
4732;SDS011;2380;53.668;10.008;2022-10-31T09:26:58;33.47;;;15.57;;
4732;SDS011;2380;53.668;10.008;2022-10-31T09:29:28;54.27;;;14.00;;
4732;SDS011;2380;53.668;10.008;2022-10-31T09:31:57;32.47;;;14.60;;
4732;SDS011;2380;53.668;10.008;2022-10-31T09:34:27;35.77;;;15.80;;
4732;SDS011;2380;53.668;10.008;2022-10-31T09:36:56;33.90;;;15.17;;
4732;SDS011;2380;53.668;10.008;2022-10-31T09:39:28;36.00;;;15.70;;
4732;SDS011;2380;53.668;10.008;2022-10-31T09:42:06;60.37;;;27.07;;
4732;SDS011;2380;53.668;10.008;2022-10-31T09:44:46;37.60;;;15.73;;
4732;SDS011;2380;53.668;10.008;2022-10-31T09:47:21;33.77;;;16.40;;
4732;SDS011;2380;53.668;10.008;2022-10-31T09:49:59;28.20;;;14.23;;
4732;SDS011;2380;53.668;10.008;2022-10-31T09:52:36;33.23;;;17.03;;
4732;SDS011;2380;53.668;10.008;2022-10-31T09:55:13;33.13;;;14.20;;
4732;SDS011;2380;53.668;10.008;2022-10-31T09:57:46;26.93;;;13.53;;
4732;SDS011;2380;53.668;10.008;2022-10-31T10:00:16;37.57;;;19.33;;
4732;SDS011;2380;53.668;10.008;2022-10-31T10:02:48;38.33;;;15.33;;
4732;SDS011;2380;53.668;10.008;2022-10-31T10:05:21;33.23;;;15.80;;
4732;SDS011;2380;53.668;10.008;2022-10-31T10:07:55;33.27;;;15.63;;
4732;SDS011;2380;53.668;10.008;2022-10-31T10:10:35;33.00;;;17.20;;
4732;SDS011;2380;53.668;10.008;2022-10-31T10:13:27;27.93;;;15.67;;
4732;SDS011;2380;53.668;10.008;2022-10-31T10:16:10;31.17;;;16.33;;
4732;SDS011;2380;53.668;10.008;2022-10-31T10:18:49;30.23;;;15.63;;
4732;SDS011;2380;53.668;10.008;2022-10-31T10:21:27;29.27;;;15.00;;
4732;SDS011;2380;53.668;10.008;2022-10-31T10:24:08;35.57;;;15.73;;
4732;SDS011;2380;53.668;10.008;2022-10-31T10:26:50;30.70;;;14.50;;
4732;SDS011;2380;53.668;10.008;2022-10-31T10:29:29;35.93;;;15.90;;
4732;SDS011;2380;53.668;10.008;2022-10-31T10:32:01;31.13;;;15.97;;
4732;SDS011;2380;53.668;10.008;2022-10-31T10:34:35;31.40;;;15.53;;
4732;SDS011;2380;53.668;10.008;2022-10-31T10:37:15;37.50;;;15.43;;
4732;SDS011;2380;53.668;10.008;2022-10-31T10:39:52;34.37;;;17.30;;
4732;SDS011;2380;53.668;10.008;2022-10-31T10:42:25;33.40;;;17.03;;
4732;SDS011;2380;53.668;10.008;2022-10-31T10:45:13;36.10;;;15.80;;
4732;SDS011;2380;53.668;10.008;2022-10-31T10:47:57;35.80;;;16.57;;
4732;SDS011;2380;53.668;10.008;2022-10-31T10:50:35;32.00;;;16.80;;
4732;SDS011;2380;53.668;10.008;2022-10-31T10:53:12;35.30;;;16.00;;
4732;SDS011;2380;53.668;10.008;2022-10-31T10:55:59;28.03;;;14.70;;
4732;SDS011;2380;53.668;10.008;2022-10-31T10:58:36;26.17;;;14.57;;
4732;SDS011;2380;53.668;10.008;2022-10-31T11:01:10;28.90;;;14.60;;
4732;SDS011;2380;53.668;10.008;2022-10-31T11:04:01;32.37;;;14.97;;
4732;SDS011;2380;53.668;10.008;2022-10-31T11:06:31;28.57;;;14.03;;
4732;SDS011;2380;53.668;10.008;2022-10-31T11:09:07;28.13;;;14.07;;
4732;SDS011;2380;53.668;10.008;2022-10-31T11:11:38;28.47;;;15.17;;
4732;SDS011;2380;53.668;10.008;2022-10-31T11:14:14;29.20;;;14.17;;
4732;SDS011;2380;53.668;10.008;2022-10-31T11:16:45;26.33;;;14.73;;
4732;SDS011;2380;53.668;10.008;2022-10-31T11:19:17;27.87;;;14.50;;
4732;SDS011;2380;53.668;10.008;2022-10-31T11:21:48;28.90;;;14.83;;
4732;SDS011;2380;53.668;10.008;2022-10-31T11:24:20;23.67;;;13.17;;
4732;SDS011;2380;53.668;10.008;2022-10-31T11:27:02;28.73;;;14.27;;
4732;SDS011;2380;53.668;10.008;2022-10-31T11:29:41;25.53;;;13.80;;
4732;SDS011;2380;53.668;10.008;2022-10-31T11:32:16;43.00;;;22.40;;
4732;SDS011;2380;53.668;10.008;2022-10-31T11:34:49;23.83;;;13.17;;
4732;SDS011;2380;53.668;10.008;2022-10-31T11:37:20;37.63;;;19.30;;
4732;SDS011;2380;53.668;10.008;2022-10-31T11:39:52;40.23;;;19.67;;
4732;SDS011;2380;53.668;10.008;2022-10-31T11:42:24;32.80;;;16.50;;
4732;SDS011;2380;53.668;10.008;2022-10-31T11:44:57;28.93;;;16.73;;
4732;SDS011;2380;53.668;10.008;2022-10-31T11:47:35;29.87;;;16.70;;
4732;SDS011;2380;53.668;10.008;2022-10-31T11:50:08;27.93;;;16.37;;
4732;SDS011;2380;53.668;10.008;2022-10-31T11:52:39;34.53;;;16.83;;
4732;SDS011;2380;53.668;10.008;2022-10-31T11:55:16;31.40;;;16.70;;
4732;SDS011;2380;53.668;10.008;2022-10-31T11:58:00;29.33;;;16.67;;
4732;SDS011;2380;53.668;10.008;2022-10-31T12:00:34;28.90;;;17.30;;
4732;SDS011;2380;53.668;10.008;2022-10-31T12:03:16;30.73;;;17.40;;
4732;SDS011;2380;53.668;10.008;2022-10-31T12:05:56;35.03;;;18.63;;
4732;SDS011;2380;53.668;10.008;2022-10-31T12:08:30;32.27;;;18.13;;
4732;SDS011;2380;53.668;10.008;2022-10-31T12:11:02;31.63;;;17.53;;
4732;SDS011;2380;53.668;10.008;2022-10-31T12:13:37;33.00;;;17.40;;
4732;SDS011;2380;53.668;10.008;2022-10-31T12:16:12;30.40;;;18.50;;
4732;SDS011;2380;53.668;10.008;2022-10-31T12:18:52;71.07;;;38.87;;
4732;SDS011;2380;53.668;10.008;2022-10-31T12:24:21;53.23;;;27.40;;
4732;SDS011;2380;53.668;10.008;2022-10-31T12:27:01;33.13;;;19.90;;
4732;SDS011;2380;53.668;10.008;2022-10-31T12:29:54;40.13;;;23.23;;
4732;SDS011;2380;53.668;10.008;2022-10-31T12:32:36;40.90;;;25.57;;
4732;SDS011;2380;53.668;10.008;2022-10-31T12:35:21;41.90;;;21.93;;
4732;SDS011;2380;53.668;10.008;2022-10-31T12:38:00;28.90;;;17.73;;
4732;SDS011;2380;53.668;10.008;2022-10-31T12:40:41;29.50;;;17.50;;
4732;SDS011;2380;53.668;10.008;2022-10-31T12:43:20;27.97;;;16.97;;
4732;SDS011;2380;53.668;10.008;2022-10-31T12:46:01;34.10;;;22.47;;
4732;SDS011;2380;53.668;10.008;2022-10-31T12:51:48;25.70;;;15.93;;
4732;SDS011;2380;53.668;10.008;2022-10-31T12:54:25;26.67;;;15.97;;
4732;SDS011;2380;53.668;10.008;2022-10-31T12:57:03;26.10;;;15.00;;
4732;SDS011;2380;53.668;10.008;2022-10-31T12:59:40;25.73;;;15.57;;
4732;SDS011;2380;53.668;10.008;2022-10-31T13:02:15;20.93;;;12.00;;
4732;SDS011;2380;53.668;10.008;2022-10-31T13:04:53;23.20;;;12.00;;
4732;SDS011;2380;53.668;10.008;2022-10-31T13:07:25;18.40;;;11.57;;
4732;SDS011;2380;53.668;10.008;2022-10-31T13:10:00;20.23;;;10.83;;
4732;SDS011;2380;53.668;10.008;2022-10-31T13:12:32;19.27;;;11.10;;
4732;SDS011;2380;53.668;10.008;2022-10-31T13:15:04;23.30;;;12.83;;
4732;SDS011;2380;53.668;10.008;2022-10-31T13:17:42;24.40;;;12.87;;
4732;SDS011;2380;53.668;10.008;2022-10-31T13:20:17;25.83;;;13.40;;
4732;SDS011;2380;53.668;10.008;2022-10-31T13:22:51;22.47;;;13.20;;
4732;SDS011;2380;53.668;10.008;2022-10-31T13:25:23;27.23;;;13.60;;
4732;SDS011;2380;53.668;10.008;2022-10-31T13:27:59;27.77;;;14.30;;
4732;SDS011;2380;53.668;10.008;2022-10-31T13:30:32;25.00;;;15.33;;
4732;SDS011;2380;53.668;10.008;2022-10-31T13:33:04;29.90;;;17.70;;
4732;SDS011;2380;53.668;10.008;2022-10-31T13:35:40;37.17;;;22.57;;
4732;SDS011;2380;53.668;10.008;2022-10-31T13:38:15;34.50;;;20.53;;
4732;SDS011;2380;53.668;10.008;2022-10-31T13:40:50;34.90;;;18.77;;
4732;SDS011;2380;53.668;10.008;2022-10-31T13:43:28;40.67;;;25.20;;
4732;SDS011;2380;53.668;10.008;2022-10-31T13:46:00;35.70;;;21.20;;
4732;SDS011;2380;53.668;10.008;2022-10-31T13:48:34;38.90;;;18.60;;
4732;SDS011;2380;53.668;10.008;2022-10-31T13:51:09;37.33;;;20.80;;
4732;SDS011;2380;53.668;10.008;2022-10-31T13:53:40;36.60;;;22.30;;
4732;SDS011;2380;53.668;10.008;2022-10-31T13:56:16;42.37;;;23.30;;
4732;SDS011;2380;53.668;10.008;2022-10-31T13:58:58;43.43;;;22.40;;
4732;SDS011;2380;53.668;10.008;2022-10-31T14:01:30;38.10;;;19.10;;
4732;SDS011;2380;53.668;10.008;2022-10-31T14:04:02;37.00;;;20.43;;
4732;SDS011;2380;53.668;10.008;2022-10-31T14:06:45;48.23;;;26.30;;
4732;SDS011;2380;53.668;10.008;2022-10-31T14:09:24;45.87;;;23.70;;
4732;SDS011;2380;53.668;10.008;2022-10-31T14:11:58;53.80;;;26.17;;
4732;SDS011;2380;53.668;10.008;2022-10-31T14:14:30;49.63;;;28.87;;
4732;SDS011;2380;53.668;10.008;2022-10-31T14:17:03;74.60;;;39.77;;
4732;SDS011;2380;53.668;10.008;2022-10-31T14:19:32;49.07;;;24.73;;
4732;SDS011;2380;53.668;10.008;2022-10-31T14:24:51;45.07;;;24.20;;
4732;SDS011;2380;53.668;10.008;2022-10-31T14:27:34;41.80;;;25.37;;
4732;SDS011;2380;53.668;10.008;2022-10-31T14:30:21;35.90;;;21.13;;
4732;SDS011;2380;53.668;10.008;2022-10-31T14:32:53;38.20;;;20.80;;
4732;SDS011;2380;53.668;10.008;2022-10-31T14:35:24;42.53;;;23.27;;
4732;SDS011;2380;53.668;10.008;2022-10-31T14:38:14;42.50;;;22.10;;
4732;SDS011;2380;53.668;10.008;2022-10-31T14:41:05;36.80;;;19.30;;
4732;SDS011;2380;53.668;10.008;2022-10-31T14:43:50;42.07;;;22.00;;
4732;SDS011;2380;53.668;10.008;2022-10-31T14:46:47;35.77;;;19.33;;
4732;SDS011;2380;53.668;10.008;2022-10-31T14:49:26;40.20;;;22.83;;
4732;SDS011;2380;53.668;10.008;2022-10-31T14:52:04;40.57;;;21.93;;
4732;SDS011;2380;53.668;10.008;2022-10-31T14:54:38;46.27;;;26.07;;
4732;SDS011;2380;53.668;10.008;2022-10-31T14:57:13;33.93;;;20.40;;
4732;SDS011;2380;53.668;10.008;2022-10-31T14:59:46;46.00;;;23.37;;
4732;SDS011;2380;53.668;10.008;2022-10-31T15:02:26;37.77;;;22.87;;
4732;SDS011;2380;53.668;10.008;2022-10-31T15:05:01;87.43;;;59.23;;
4732;SDS011;2380;53.668;10.008;2022-10-31T15:07:32;39.50;;;22.47;;
4732;SDS011;2380;53.668;10.008;2022-10-31T15:10:06;56.60;;;32.20;;
4732;SDS011;2380;53.668;10.008;2022-10-31T15:12:49;63.27;;;37.37;;
4732;SDS011;2380;53.668;10.008;2022-10-31T15:15:19;87.97;;;48.27;;
4732;SDS011;2380;53.668;10.008;2022-10-31T15:17:51;88.80;;;46.93;;
4732;SDS011;2380;53.668;10.008;2022-10-31T15:20:23;56.13;;;32.73;;
4732;SDS011;2380;53.668;10.008;2022-10-31T15:22:55;65.03;;;36.90;;